createdAt,value
2022-08-07T00:02:41.467Z,94.70
2022-08-07T00:05:26.193Z,94.80
2022-08-07T00:08:02.177Z,94.70
2022-08-07T00:10:48.065Z,94.70
2022-08-07T00:13:37.697Z,95.20
2022-08-07T00:16:28.074Z,94.80
2022-08-07T00:19:05.670Z,94.70
2022-08-07T00:21:56.106Z,95.30
2022-08-07T00:24:39.488Z,95.10
2022-08-07T00:27:14.050Z,95.90
2022-08-07T00:29:54.489Z,95.60
2022-08-07T00:32:35.107Z,94.90
2022-08-07T00:35:15.053Z,95.70
2022-08-07T00:37:52.387Z,96.30
2022-08-07T00:40:40.854Z,95.30
2022-08-07T00:43:59.717Z,95.30
2022-08-07T00:46:19.070Z,95.50
2022-08-07T00:48:53.526Z,96.00
2022-08-07T00:51:57.580Z,96.00
2022-08-07T00:54:42.147Z,96.10
2022-08-07T00:57:20.268Z,95.50
2022-08-07T01:00:08.133Z,96.00
2022-08-07T01:02:46.145Z,96.10
2022-08-07T01:05:24.589Z,96.10
2022-08-07T01:07:58.599Z,96.50
2022-08-07T01:10:41.124Z,97.20
2022-08-07T01:13:26.600Z,97.20
2022-08-07T01:16:30.507Z,96.90
2022-08-07T01:19:18.142Z,96.70
2022-08-07T01:22:03.111Z,96.60
2022-08-07T01:24:53.200Z,97.50
2022-08-07T01:27:32.319Z,98.00
2022-08-07T01:30:10.881Z,99.00
2022-08-07T01:32:51.527Z,97.80
2022-08-07T01:35:53.647Z,97.30
2022-08-07T01:38:31.148Z,98.00
2022-08-07T01:41:26.271Z,98.20
2022-08-07T01:44:10.108Z,98.30
2022-08-07T01:46:54.797Z,98.40
2022-08-07T01:49:35.158Z,97.80
2022-08-07T01:52:19.167Z,97.90
2022-08-07T01:55:00.169Z,99.30
2022-08-07T01:58:05.449Z,98.40
2022-08-07T02:00:57.898Z,99.90
2022-08-07T02:03:48.984Z,98.50
2022-08-07T02:06:32.545Z,99.10
2022-08-07T02:09:51.835Z,99.20
2022-08-07T02:12:29.322Z,98.70
2022-08-07T02:15:09.184Z,98.60
2022-08-07T02:17:51.667Z,99.60
2022-08-07T02:20:26.552Z,99.50
2022-08-07T02:23:11.658Z,99.90
2022-08-07T02:26:26.653Z,99.90
2022-08-07T02:28:54.184Z,99.10
2022-08-07T02:31:32.564Z,99.90
2022-08-07T02:34:11.207Z,99.90
2022-08-07T02:36:53.810Z,99.90
2022-08-07T02:39:43.418Z,99.90
2022-08-07T02:42:38.664Z,99.90
2022-08-07T02:46:00.320Z,99.90
2022-08-07T02:48:35.269Z,99.90
2022-08-07T02:51:41.948Z,99.90
2022-08-07T02:54:15.194Z,99.90
2022-08-07T02:56:50.199Z,99.90
2022-08-07T02:59:34.023Z,99.90
2022-08-07T03:02:15.276Z,99.90
2022-08-07T03:04:56.872Z,99.90
2022-08-07T03:08:05.001Z,99.90
2022-08-07T03:10:41.032Z,99.90
2022-08-07T03:13:25.563Z,99.90
2022-08-07T03:16:05.697Z,99.90
2022-08-07T03:18:46.195Z,99.90
2022-08-07T03:21:23.236Z,99.90
2022-08-07T03:24:20.932Z,99.90
2022-08-07T03:27:11.255Z,99.90
2022-08-07T03:29:56.614Z,99.90
2022-08-07T03:32:34.305Z,99.90
2022-08-07T03:35:27.916Z,99.90
2022-08-07T03:38:33.334Z,99.90
2022-08-07T03:41:14.990Z,99.90
2022-08-07T03:43:57.307Z,99.90
2022-08-07T03:46:36.244Z,99.90
2022-08-07T03:49:38.653Z,99.90
2022-08-07T03:52:22.741Z,99.90
2022-08-07T03:55:08.292Z,99.90
2022-08-07T03:59:07.359Z,99.90
2022-08-07T04:00:59.426Z,99.90
2022-08-07T04:03:53.431Z,99.90
2022-08-07T04:06:41.264Z,99.90
2022-08-07T04:09:23.405Z,99.90
2022-08-07T04:12:25.143Z,99.90
2022-08-07T04:15:13.353Z,99.90
2022-08-07T04:18:30.815Z,99.90
2022-08-07T04:20:55.045Z,99.90
2022-08-07T04:23:43.694Z,99.90
2022-08-07T04:26:39.644Z,99.90
2022-08-07T04:29:20.312Z,99.90
2022-08-07T04:32:10.767Z,99.90
2022-08-07T04:34:51.265Z,99.90
2022-08-07T04:38:01.025Z,99.90
2022-08-07T04:40:34.354Z,99.90
2022-08-07T04:43:09.152Z,99.90
2022-08-07T04:46:00.864Z,99.90
2022-08-07T04:48:50.876Z,99.90
2022-08-07T04:51:42.303Z,99.90
2022-08-07T04:54:34.344Z,99.90
2022-08-07T04:58:24.120Z,99.90
2022-08-07T05:00:30.614Z,99.90
2022-08-07T05:04:06.604Z,99.90
2022-08-07T05:06:51.783Z,99.90
2022-08-07T05:09:46.491Z,98.20
2022-08-07T05:12:26.892Z,98.60
2022-08-07T05:15:23.485Z,98.20
2022-08-07T05:18:15.376Z,97.80
2022-08-07T05:21:00.576Z,97.30
2022-08-07T05:23:50.194Z,96.00
2022-08-07T05:26:24.807Z,95.70
2022-08-07T05:29:08.932Z,96.20
2022-08-07T05:31:52.655Z,95.90
2022-08-07T05:34:39.498Z,96.30
2022-08-07T05:37:25.348Z,96.10
2022-08-07T05:40:17.757Z,96.50
2022-08-07T05:43:02.402Z,96.10
2022-08-07T05:45:47.087Z,95.40
2022-08-07T05:48:26.335Z,95.30
2022-08-07T05:51:11.539Z,94.30
2022-08-07T05:54:13.345Z,93.30
2022-08-07T05:56:51.296Z,92.50
2022-08-07T05:59:39.062Z,92.60
2022-08-07T06:02:36.941Z,91.60
2022-08-07T06:05:25.837Z,88.70
2022-08-07T06:08:30.316Z,89.40
2022-08-07T06:11:10.799Z,85.30
2022-08-07T06:14:13.138Z,82.50
2022-08-07T06:16:57.135Z,80.80
2022-08-07T06:20:03.744Z,81.30
2022-08-07T06:23:01.795Z,80.60
2022-08-07T06:25:54.249Z,81.40
2022-08-07T06:28:33.450Z,79.90
2022-08-07T06:31:10.802Z,78.40
2022-08-07T06:33:55.465Z,78.00
2022-08-07T06:36:35.419Z,76.60
2022-08-07T06:40:16.777Z,76.10
2022-08-07T06:42:33.003Z,73.00
2022-08-07T06:45:29.555Z,72.70
2022-08-07T06:48:13.420Z,74.30
2022-08-07T06:50:55.917Z,73.50
2022-08-07T06:54:11.758Z,71.50
2022-08-07T06:56:49.527Z,71.30
2022-08-07T07:00:12.089Z,71.10
2022-08-07T07:02:48.598Z,71.20
2022-08-07T07:06:03.845Z,71.40
2022-08-07T07:08:46.641Z,68.70
2022-08-07T07:12:08.749Z,69.50
2022-08-07T07:14:34.221Z,68.70
2022-08-07T07:17:13.611Z,68.90
2022-08-07T07:19:56.959Z,68.10
2022-08-07T07:24:05.612Z,66.50
2022-08-07T07:26:35.418Z,67.90
2022-08-07T07:29:28.571Z,66.20
2022-08-07T07:31:56.499Z,64.30
2022-08-07T07:34:34.753Z,64.80
2022-08-07T07:37:45.497Z,64.00
2022-08-07T07:40:26.399Z,64.80
2022-08-07T07:43:15.015Z,61.40
2022-08-07T07:46:37.921Z,58.40
2022-08-07T07:50:15.902Z,56.70
2022-08-07T07:52:03.579Z,53.70
2022-08-07T07:54:50.534Z,52.80
2022-08-07T07:57:43.948Z,53.90
2022-08-07T08:00:34.173Z,56.00
2022-08-07T08:04:06.080Z,57.90
2022-08-07T08:06:31.911Z,58.10
2022-08-07T08:09:06.593Z,60.30
2022-08-07T08:12:00.060Z,63.50
2022-08-07T08:14:26.517Z,62.90
2022-08-07T08:16:56.592Z,62.30
2022-08-07T08:20:19.021Z,62.60
2022-08-07T08:22:55.975Z,63.10
2022-08-07T08:25:49.033Z,64.00
2022-08-07T08:28:24.115Z,65.90
2022-08-07T08:31:06.855Z,62.80
2022-08-07T08:33:37.605Z,65.00
2022-08-07T08:36:08.008Z,67.70
2022-08-07T08:38:41.101Z,65.80
2022-08-07T08:41:23.187Z,66.40
2022-08-07T08:44:15.707Z,68.30
2022-08-07T08:46:49.476Z,65.80
2022-08-07T08:49:33.950Z,67.10
2022-08-07T08:52:24.190Z,67.00
2022-08-07T08:55:08.077Z,66.40
2022-08-07T08:57:42.761Z,69.10
2022-08-07T09:00:14.091Z,70.10
2022-08-07T09:02:49.512Z,68.40
2022-08-07T09:05:37.017Z,67.90
2022-08-07T09:08:07.410Z,69.00
2022-08-07T09:10:45.302Z,69.20
2022-08-07T09:13:36.826Z,68.10
2022-08-07T09:16:40.343Z,69.80
2022-08-07T09:19:52.338Z,72.80
2022-08-07T09:24:28.353Z,74.30
2022-08-07T09:25:24.260Z,74.40
2022-08-07T09:28:00.971Z,73.10
2022-08-07T09:31:03.039Z,71.70
2022-08-07T09:33:57.638Z,69.00
2022-08-07T09:36:37.338Z,67.60
2022-08-07T09:39:52.651Z,64.40
2022-08-07T09:42:07.814Z,59.70
2022-08-07T09:45:03.421Z,52.70
2022-08-07T09:48:00.887Z,49.40
2022-08-07T09:50:54.491Z,50.80
2022-08-07T09:53:25.777Z,49.60
2022-08-07T09:56:05.467Z,49.80
2022-08-07T09:58:55.738Z,52.30
2022-08-07T10:01:53.044Z,51.30
2022-08-07T10:04:28.285Z,53.00
2022-08-07T10:07:04.130Z,54.20
2022-08-07T10:09:58.962Z,56.40
2022-08-07T10:12:31.367Z,56.60
2022-08-07T10:15:20.642Z,53.20
2022-08-07T10:18:02.873Z,52.40
2022-08-07T10:20:44.497Z,53.50
2022-08-07T10:24:05.410Z,49.20
2022-08-07T10:26:40.561Z,47.60
2022-08-07T10:29:23.931Z,47.70
2022-08-07T10:32:00.896Z,47.80
2022-08-07T10:34:32.729Z,49.50
2022-08-07T10:37:04.796Z,51.80
2022-08-07T10:39:42.255Z,51.60
2022-08-07T10:42:37.305Z,54.40
2022-08-07T10:45:44.766Z,54.40
2022-08-07T10:48:15.131Z,53.20
2022-08-07T10:50:51.660Z,54.00
2022-08-07T10:53:21.624Z,53.10
2022-08-07T10:55:54.239Z,52.90
2022-08-07T10:58:40.787Z,53.40
2022-08-07T11:01:18.012Z,52.70
2022-08-07T11:04:16.495Z,50.40
2022-08-07T11:06:44.461Z,49.90
2022-08-07T11:09:12.887Z,52.00
2022-08-07T11:12:12.263Z,53.10
2022-08-07T11:15:00.742Z,53.80
2022-08-07T11:17:43.290Z,53.20
2022-08-07T11:20:14.023Z,54.90
2022-08-07T11:22:54.672Z,54.30
2022-08-07T11:25:25.376Z,53.40
2022-08-07T11:28:12.641Z,53.90
2022-08-07T11:31:00.024Z,55.20
2022-08-07T11:33:58.698Z,54.60
2022-08-07T11:36:46.329Z,54.20
2022-08-07T11:39:28.343Z,51.90
2022-08-07T11:42:29.509Z,50.70
2022-08-07T11:44:58.211Z,51.40
2022-08-07T11:47:56.624Z,52.30
2022-08-07T11:50:57.710Z,52.30
2022-08-07T11:54:00.706Z,51.20
2022-08-07T11:56:33.106Z,50.40
2022-08-07T12:00:08.157Z,48.40
2022-08-07T12:02:20.788Z,44.00
2022-08-07T12:05:01.320Z,45.20
2022-08-07T12:07:53.618Z,47.30
2022-08-07T12:10:37.907Z,47.10
2022-08-07T12:13:35.774Z,49.20
2022-08-07T12:16:12.283Z,51.80
2022-08-07T12:19:06.042Z,52.90
2022-08-07T12:22:35.917Z,55.70
2022-08-07T12:24:40.220Z,57.20
2022-08-07T12:27:16.932Z,61.20
2022-08-07T12:30:03.570Z,65.20
2022-08-07T12:32:44.503Z,68.80
2022-08-07T12:35:20.971Z,70.30
2022-08-07T12:38:09.435Z,71.70
2022-08-07T12:40:47.794Z,72.00
2022-08-07T12:44:01.995Z,72.70
2022-08-07T12:46:32.482Z,72.60
2022-08-07T12:49:39.823Z,74.50
2022-08-07T12:52:14.429Z,75.90
2022-08-07T12:54:55.009Z,75.10
2022-08-07T12:57:38.758Z,73.10
2022-08-07T13:00:21.001Z,74.00
2022-08-07T13:03:27.019Z,73.90
2022-08-07T13:06:36.652Z,74.90
2022-08-07T13:10:19.599Z,75.10
2022-08-07T13:12:30.157Z,74.50
2022-08-07T13:15:14.315Z,74.30
2022-08-07T13:18:09.860Z,71.00
2022-08-07T13:21:02.729Z,71.00
2022-08-07T13:24:01.898Z,68.40
2022-08-07T13:26:41.815Z,69.10
2022-08-07T13:29:17.484Z,70.60
2022-08-07T13:31:57.371Z,71.70
2022-08-07T13:34:50.813Z,74.60
2022-08-07T13:37:25.888Z,78.00
2022-08-07T13:40:34.975Z,78.00
2022-08-07T13:43:06.450Z,78.30
2022-08-07T13:46:10.906Z,77.30
2022-08-07T13:48:34.466Z,74.70
2022-08-07T13:51:28.040Z,75.20
2022-08-07T13:54:00.743Z,75.70
2022-08-07T13:56:41.221Z,74.00
2022-08-07T13:59:27.259Z,68.80
2022-08-07T14:02:08.766Z,65.10
2022-08-07T14:04:48.912Z,61.40
2022-08-07T14:07:23.030Z,65.00
2022-08-07T14:10:17.589Z,70.10
2022-08-07T14:13:02.185Z,73.10
2022-08-07T14:15:44.853Z,76.80
2022-08-07T14:18:30.499Z,79.70
2022-08-07T14:21:08.518Z,81.10
2022-08-07T14:24:01.218Z,83.10
2022-08-07T14:26:34.112Z,84.60
2022-08-07T14:30:03.046Z,85.80
2022-08-07T14:34:46.370Z,85.70
2022-08-07T14:40:26.367Z,83.50
2022-08-07T14:43:59.470Z,80.50
2022-08-07T14:45:54.664Z,78.10
2022-08-07T14:48:33.447Z,74.50
2022-08-07T14:51:04.588Z,74.10
2022-08-07T14:54:05.906Z,76.30
2022-08-07T14:56:30.099Z,75.90
2022-08-07T15:02:08.698Z,73.80
2022-08-07T15:05:01.791Z,71.40
2022-08-07T15:07:47.374Z,71.40
2022-08-07T15:10:32.109Z,73.30
2022-08-07T15:13:11.801Z,78.10
2022-08-07T15:15:52.643Z,80.70
2022-08-07T15:18:45.391Z,81.90
2022-08-07T15:21:43.769Z,84.50
2022-08-07T15:28:53.574Z,84.70
2022-08-07T15:31:58.063Z,85.40
2022-08-07T15:38:04.341Z,85.60
2022-08-07T15:40:38.050Z,86.90
2022-08-07T15:46:52.666Z,86.60
2022-08-07T15:50:04.422Z,87.40
2022-08-07T15:52:31.385Z,86.60
2022-08-07T15:55:11.614Z,88.90
2022-08-07T15:57:50.551Z,88.70
2022-08-07T16:00:35.734Z,88.40
2022-08-07T16:03:46.785Z,82.80
2022-08-07T16:06:22.147Z,83.70
2022-08-07T16:09:07.698Z,85.50
2022-08-07T16:11:58.979Z,87.00
2022-08-07T16:14:44.346Z,86.00
2022-08-07T16:18:02.526Z,86.70
2022-08-07T16:20:34.022Z,81.50
2022-08-07T16:23:13.397Z,86.00
2022-08-07T16:25:55.722Z,88.50
2022-08-07T16:30:07.091Z,89.40
2022-08-07T16:31:52.039Z,89.30
2022-08-07T16:34:30.543Z,89.20
2022-08-07T16:37:02.852Z,90.20
2022-08-07T16:40:28.608Z,90.00
2022-08-07T16:44:06.372Z,90.80
2022-08-07T16:47:51.511Z,90.30
2022-08-07T16:50:37.176Z,91.00
2022-08-07T16:53:55.382Z,91.90
2022-08-07T16:56:08.970Z,91.40
2022-08-07T16:59:14.312Z,91.70
2022-08-07T17:02:51.599Z,91.80
2022-08-07T17:06:02.366Z,92.30
2022-08-07T17:08:08.986Z,92.60
2022-08-07T17:10:54.241Z,93.00
2022-08-07T17:20:01.937Z,93.00
2022-08-07T17:22:36.394Z,93.00
2022-08-07T17:25:47.811Z,93.60
2022-08-07T17:28:19.752Z,93.40
2022-08-07T17:31:01.252Z,93.60
2022-08-07T17:42:14.970Z,93.70
2022-08-07T17:44:54.949Z,94.10
2022-08-07T17:47:43.864Z,94.30
2022-08-07T17:50:16.736Z,93.90
2022-08-07T17:53:08.712Z,93.80
2022-08-07T17:56:07.034Z,93.90
2022-08-07T17:58:46.449Z,94.30
2022-08-07T18:01:21.262Z,94.60
2022-08-07T18:04:16.170Z,94.80
